sensor_id;sensor_type;location;lat;lon;timestamp;P1;durP1;ratioP1;P2;durP2;ratioP2
8007;SDS011;4049;49.468;11.200;2023-01-19T00:01:32;14.53;;;6.90;;
8007;SDS011;4049;49.468;11.200;2023-01-19T00:03:59;11.80;;;6.33;;
8007;SDS011;4049;49.468;11.200;2023-01-19T00:06:27;15.73;;;7.27;;
8007;SDS011;4049;49.468;11.200;2023-01-19T00:08:55;14.50;;;6.40;;
8007;SDS011;4049;49.468;11.200;2023-01-19T00:11:22;14.20;;;6.63;;
8007;SDS011;4049;49.468;11.200;2023-01-19T00:13:49;11.93;;;6.40;;
8007;SDS011;4049;49.468;11.200;2023-01-19T00:16:17;14.10;;;7.37;;
8007;SDS011;4049;49.468;11.200;2023-01-19T00:18:45;20.50;;;7.40;;
8007;SDS011;4049;49.468;11.200;2023-01-19T00:21:14;17.50;;;7.50;;
8007;SDS011;4049;49.468;11.200;2023-01-19T00:23:43;14.77;;;7.17;;
8007;SDS011;4049;49.468;11.200;2023-01-19T00:26:12;13.47;;;7.50;;
8007;SDS011;4049;49.468;11.200;2023-01-19T00:28:40;14.17;;;7.07;;
8007;SDS011;4049;49.468;11.200;2023-01-19T00:31:07;15.77;;;7.53;;
8007;SDS011;4049;49.468;11.200;2023-01-19T00:33:34;15.93;;;7.37;;
8007;SDS011;4049;49.468;11.200;2023-01-19T00:36:01;13.40;;;7.93;;
8007;SDS011;4049;49.468;11.200;2023-01-19T00:38:28;14.83;;;7.23;;
8007;SDS011;4049;49.468;11.200;2023-01-19T00:40:56;15.93;;;7.23;;
8007;SDS011;4049;49.468;11.200;2023-01-19T00:43:23;14.67;;;8.77;;
8007;SDS011;4049;49.468;11.200;2023-01-19T00:45:50;20.20;;;8.93;;
8007;SDS011;4049;49.468;11.200;2023-01-19T00:48:17;20.30;;;7.67;;
8007;SDS011;4049;49.468;11.200;2023-01-19T00:50:44;18.30;;;8.07;;
8007;SDS011;4049;49.468;11.200;2023-01-19T00:53:11;13.87;;;6.53;;
8007;SDS011;4049;49.468;11.200;2023-01-19T00:55:38;13.27;;;6.57;;
8007;SDS011;4049;49.468;11.200;2023-01-19T00:58:06;12.73;;;6.77;;
8007;SDS011;4049;49.468;11.200;2023-01-19T01:00:33;19.17;;;7.17;;
8007;SDS011;4049;49.468;11.200;2023-01-19T01:03:00;13.60;;;7.07;;
8007;SDS011;4049;49.468;11.200;2023-01-19T01:05:31;15.60;;;6.97;;
8007;SDS011;4049;49.468;11.200;2023-01-19T01:08:00;11.37;;;6.53;;
8007;SDS011;4049;49.468;11.200;2023-01-19T01:10:27;14.30;;;7.23;;
8007;SDS011;4049;49.468;11.200;2023-01-19T01:12:54;14.10;;;6.93;;
8007;SDS011;4049;49.468;11.200;2023-01-19T01:15:23;14.37;;;6.53;;
8007;SDS011;4049;49.468;11.200;2023-01-19T01:17:51;14.03;;;6.60;;
8007;SDS011;4049;49.468;11.200;2023-01-19T01:20:18;17.67;;;7.77;;
8007;SDS011;4049;49.468;11.200;2023-01-19T01:22:47;15.27;;;6.90;;
8007;SDS011;4049;49.468;11.200;2023-01-19T01:25:16;12.00;;;6.67;;
8007;SDS011;4049;49.468;11.200;2023-01-19T01:27:44;13.90;;;6.20;;
8007;SDS011;4049;49.468;11.200;2023-01-19T01:30:11;12.70;;;6.47;;
8007;SDS011;4049;49.468;11.200;2023-01-19T01:32:41;18.83;;;6.80;;
8007;SDS011;4049;49.468;11.200;2023-01-19T01:35:08;12.10;;;6.97;;
8007;SDS011;4049;49.468;11.200;2023-01-19T01:37:35;13.53;;;6.53;;
8007;SDS011;4049;49.468;11.200;2023-01-19T01:40:03;13.60;;;6.30;;
8007;SDS011;4049;49.468;11.200;2023-01-19T01:42:31;16.73;;;7.10;;
8007;SDS011;4049;49.468;11.200;2023-01-19T01:44:59;12.27;;;6.70;;
8007;SDS011;4049;49.468;11.200;2023-01-19T01:47:28;15.27;;;7.30;;
8007;SDS011;4049;49.468;11.200;2023-01-19T01:50:02;11.93;;;6.97;;
8007;SDS011;4049;49.468;11.200;2023-01-19T01:52:33;19.63;;;8.63;;
8007;SDS011;4049;49.468;11.200;2023-01-19T01:55:03;15.43;;;8.27;;
8007;SDS011;4049;49.468;11.200;2023-01-19T01:57:32;15.67;;;7.77;;
8007;SDS011;4049;49.468;11.200;2023-01-19T02:00:02;17.53;;;8.23;;
8007;SDS011;4049;49.468;11.200;2023-01-19T02:02:30;18.20;;;8.40;;
8007;SDS011;4049;49.468;11.200;2023-01-19T02:05:17;16.23;;;7.73;;
8007;SDS011;4049;49.468;11.200;2023-01-19T02:07:49;15.00;;;8.30;;
8007;SDS011;4049;49.468;11.200;2023-01-19T02:10:38;27.43;;;11.53;;
8007;SDS011;4049;49.468;11.200;2023-01-19T02:13:24;30.30;;;12.40;;
8007;SDS011;4049;49.468;11.200;2023-01-19T02:15:52;19.77;;;9.47;;
8007;SDS011;4049;49.468;11.200;2023-01-19T02:18:20;21.70;;;9.97;;
8007;SDS011;4049;49.468;11.200;2023-01-19T02:20:52;21.53;;;9.77;;
8007;SDS011;4049;49.468;11.200;2023-01-19T02:26:15;21.30;;;9.03;;
8007;SDS011;4049;49.468;11.200;2023-01-19T02:28:45;18.20;;;7.93;;
8007;SDS011;4049;49.468;11.200;2023-01-19T02:31:15;15.67;;;8.30;;
8007;SDS011;4049;49.468;11.200;2023-01-19T02:33:42;17.30;;;8.63;;
8007;SDS011;4049;49.468;11.200;2023-01-19T02:36:09;19.93;;;9.43;;
8007;SDS011;4049;49.468;11.200;2023-01-19T02:38:39;18.53;;;8.57;;
8007;SDS011;4049;49.468;11.200;2023-01-19T02:41:11;19.60;;;7.77;;
8007;SDS011;4049;49.468;11.200;2023-01-19T02:43:41;15.90;;;8.03;;
8007;SDS011;4049;49.468;11.200;2023-01-19T02:46:08;16.60;;;8.27;;
8007;SDS011;4049;49.468;11.200;2023-01-19T02:48:35;21.13;;;8.33;;
8007;SDS011;4049;49.468;11.200;2023-01-19T02:51:02;19.77;;;8.33;;
8007;SDS011;4049;49.468;11.200;2023-01-19T02:53:57;16.97;;;7.70;;
8007;SDS011;4049;49.468;11.200;2023-01-19T02:59:53;12.83;;;7.03;;
8007;SDS011;4049;49.468;11.200;2023-01-19T03:02:33;18.40;;;8.40;;
8007;SDS011;4049;49.468;11.200;2023-01-19T03:05:13;18.10;;;8.90;;
8007;SDS011;4049;49.468;11.200;2023-01-19T03:07:53;18.17;;;9.20;;
8007;SDS011;4049;49.468;11.200;2023-01-19T03:10:25;18.47;;;8.57;;
8007;SDS011;4049;49.468;11.200;2023-01-19T03:12:58;18.17;;;9.33;;
8007;SDS011;4049;49.468;11.200;2023-01-19T03:15:30;19.70;;;9.67;;
8007;SDS011;4049;49.468;11.200;2023-01-19T03:18:00;16.27;;;9.10;;
8007;SDS011;4049;49.468;11.200;2023-01-19T03:20:28;18.77;;;8.77;;
8007;SDS011;4049;49.468;11.200;2023-01-19T03:22:57;20.47;;;9.53;;
8007;SDS011;4049;49.468;11.200;2023-01-19T03:25:26;19.40;;;9.40;;
8007;SDS011;4049;49.468;11.200;2023-01-19T03:27:56;19.97;;;9.43;;
8007;SDS011;4049;49.468;11.200;2023-01-19T03:30:25;18.17;;;9.13;;
8007;SDS011;4049;49.468;11.200;2023-01-19T03:32:58;20.87;;;9.07;;
8007;SDS011;4049;49.468;11.200;2023-01-19T03:35:29;25.90;;;10.13;;
8007;SDS011;4049;49.468;11.200;2023-01-19T03:37:59;17.43;;;9.43;;
8007;SDS011;4049;49.468;11.200;2023-01-19T03:40:28;26.40;;;11.10;;
8007;SDS011;4049;49.468;11.200;2023-01-19T03:42:56;17.97;;;9.10;;
8007;SDS011;4049;49.468;11.200;2023-01-19T03:45:25;24.63;;;10.23;;
8007;SDS011;4049;49.468;11.200;2023-01-19T03:47:54;23.20;;;10.20;;
8007;SDS011;4049;49.468;11.200;2023-01-19T03:50:23;21.27;;;10.07;;
8007;SDS011;4049;49.468;11.200;2023-01-19T03:53:04;28.77;;;11.80;;
8007;SDS011;4049;49.468;11.200;2023-01-19T03:55:33;20.30;;;9.57;;
8007;SDS011;4049;49.468;11.200;2023-01-19T03:58:03;18.70;;;9.50;;
8007;SDS011;4049;49.468;11.200;2023-01-19T04:00:30;24.83;;;10.50;;
8007;SDS011;4049;49.468;11.200;2023-01-19T04:02:57;21.47;;;9.70;;
8007;SDS011;4049;49.468;11.200;2023-01-19T04:05:24;19.80;;;10.00;;
8007;SDS011;4049;49.468;11.200;2023-01-19T04:07:51;19.07;;;9.37;;
8007;SDS011;4049;49.468;11.200;2023-01-19T04:10:19;20.73;;;10.70;;
8007;SDS011;4049;49.468;11.200;2023-01-19T04:12:46;20.63;;;9.33;;
8007;SDS011;4049;49.468;11.200;2023-01-19T04:15:15;21.83;;;8.97;;
8007;SDS011;4049;49.468;11.200;2023-01-19T04:17:42;19.37;;;9.73;;
8007;SDS011;4049;49.468;11.200;2023-01-19T04:20:09;19.43;;;9.73;;
8007;SDS011;4049;49.468;11.200;2023-01-19T04:22:36;21.37;;;10.80;;
8007;SDS011;4049;49.468;11.200;2023-01-19T04:25:04;19.33;;;10.13;;
8007;SDS011;4049;49.468;11.200;2023-01-19T04:27:32;16.57;;;9.33;;
8007;SDS011;4049;49.468;11.200;2023-01-19T04:29:59;20.47;;;9.70;;
8007;SDS011;4049;49.468;11.200;2023-01-19T04:32:27;20.17;;;9.40;;
8007;SDS011;4049;49.468;11.200;2023-01-19T04:34:54;19.07;;;9.33;;
8007;SDS011;4049;49.468;11.200;2023-01-19T04:37:21;18.37;;;10.17;;
8007;SDS011;4049;49.468;11.200;2023-01-19T04:39:48;17.63;;;9.67;;
8007;SDS011;4049;49.468;11.200;2023-01-19T04:42:14;18.53;;;9.77;;
8007;SDS011;4049;49.468;11.200;2023-01-19T04:44:41;21.70;;;9.50;;
8007;SDS011;4049;49.468;11.200;2023-01-19T04:47:08;19.40;;;9.37;;
8007;SDS011;4049;49.468;11.200;2023-01-19T04:49:37;20.90;;;9.47;;
8007;SDS011;4049;49.468;11.200;2023-01-19T04:52:04;18.10;;;9.60;;
8007;SDS011;4049;49.468;11.200;2023-01-19T04:54:31;18.07;;;9.50;;
8007;SDS011;4049;49.468;11.200;2023-01-19T04:56:58;18.93;;;9.03;;
8007;SDS011;4049;49.468;11.200;2023-01-19T04:59:24;20.77;;;9.83;;
8007;SDS011;4049;49.468;11.200;2023-01-19T05:01:51;20.40;;;9.90;;
8007;SDS011;4049;49.468;11.200;2023-01-19T05:04:18;25.70;;;10.50;;
8007;SDS011;4049;49.468;11.200;2023-01-19T05:06:47;15.30;;;9.10;;
8007;SDS011;4049;49.468;11.200;2023-01-19T05:09:15;18.60;;;9.30;;
8007;SDS011;4049;49.468;11.200;2023-01-19T05:11:42;20.50;;;10.43;;
8007;SDS011;4049;49.468;11.200;2023-01-19T05:14:09;21.60;;;9.67;;
8007;SDS011;4049;49.468;11.200;2023-01-19T05:16:36;17.80;;;9.27;;
8007;SDS011;4049;49.468;11.200;2023-01-19T05:19:03;19.00;;;9.37;;
8007;SDS011;4049;49.468;11.200;2023-01-19T05:21:29;17.57;;;9.23;;
8007;SDS011;4049;49.468;11.200;2023-01-19T05:23:58;18.33;;;9.97;;
8007;SDS011;4049;49.468;11.200;2023-01-19T05:26:24;16.80;;;9.17;;
8007;SDS011;4049;49.468;11.200;2023-01-19T05:28:51;17.40;;;8.57;;
8007;SDS011;4049;49.468;11.200;2023-01-19T05:31:18;16.53;;;8.87;;
8007;SDS011;4049;49.468;11.200;2023-01-19T05:33:45;18.30;;;9.23;;
8007;SDS011;4049;49.468;11.200;2023-01-19T05:36:12;16.07;;;8.27;;
8007;SDS011;4049;49.468;11.200;2023-01-19T05:38:39;19.90;;;8.60;;
8007;SDS011;4049;49.468;11.200;2023-01-19T05:41:07;17.50;;;8.90;;
8007;SDS011;4049;49.468;11.200;2023-01-19T05:43:33;17.50;;;9.37;;
8007;SDS011;4049;49.468;11.200;2023-01-19T05:46:02;16.83;;;9.50;;
8007;SDS011;4049;49.468;11.200;2023-01-19T05:48:29;19.30;;;9.73;;
8007;SDS011;4049;49.468;11.200;2023-01-19T05:50:56;16.53;;;9.03;;
8007;SDS011;4049;49.468;11.200;2023-01-19T05:53:24;18.50;;;9.33;;
8007;SDS011;4049;49.468;11.200;2023-01-19T05:55:51;16.77;;;8.80;;
8007;SDS011;4049;49.468;11.200;2023-01-19T05:58:19;21.70;;;9.97;;
8007;SDS011;4049;49.468;11.200;2023-01-19T06:00:46;22.67;;;10.70;;
8007;SDS011;4049;49.468;11.200;2023-01-19T06:03:13;16.67;;;9.47;;
8007;SDS011;4049;49.468;11.200;2023-01-19T06:05:39;21.20;;;9.20;;
8007;SDS011;4049;49.468;11.200;2023-01-19T06:08:06;27.03;;;10.63;;
8007;SDS011;4049;49.468;11.200;2023-01-19T06:10:33;18.10;;;10.10;;
8007;SDS011;4049;49.468;11.200;2023-01-19T06:13:00;24.43;;;10.83;;
8007;SDS011;4049;49.468;11.200;2023-01-19T06:15:28;26.57;;;11.90;;
8007;SDS011;4049;49.468;11.200;2023-01-19T06:17:55;22.47;;;12.10;;
8007;SDS011;4049;49.468;11.200;2023-01-19T06:20:22;24.63;;;10.63;;
8007;SDS011;4049;49.468;11.200;2023-01-19T06:22:48;31.40;;;12.43;;
8007;SDS011;4049;49.468;11.200;2023-01-19T06:25:16;20.83;;;11.33;;
8007;SDS011;4049;49.468;11.200;2023-01-19T06:27:43;20.13;;;9.27;;
8007;SDS011;4049;49.468;11.200;2023-01-19T06:30:10;19.33;;;9.07;;
8007;SDS011;4049;49.468;11.200;2023-01-19T06:32:39;26.57;;;10.77;;
8007;SDS011;4049;49.468;11.200;2023-01-19T06:35:06;31.57;;;12.57;;
8007;SDS011;4049;49.468;11.200;2023-01-19T06:37:33;26.43;;;10.53;;
8007;SDS011;4049;49.468;11.200;2023-01-19T06:40:00;28.57;;;11.13;;
8007;SDS011;4049;49.468;11.200;2023-01-19T06:42:27;30.70;;;10.90;;
8007;SDS011;4049;49.468;11.200;2023-01-19T06:44:54;29.77;;;12.47;;
8007;SDS011;4049;49.468;11.200;2023-01-19T06:47:21;24.90;;;9.97;;
8007;SDS011;4049;49.468;11.200;2023-01-19T06:49:49;23.13;;;10.87;;
8007;SDS011;4049;49.468;11.200;2023-01-19T06:52:16;29.60;;;10.87;;
8007;SDS011;4049;49.468;11.200;2023-01-19T06:54:44;23.47;;;9.83;;
8007;SDS011;4049;49.468;11.200;2023-01-19T06:57:11;21.07;;;8.83;;
8007;SDS011;4049;49.468;11.200;2023-01-19T06:59:38;21.13;;;9.60;;
8007;SDS011;4049;49.468;11.200;2023-01-19T07:02:05;17.67;;;9.67;;
8007;SDS011;4049;49.468;11.200;2023-01-19T07:04:34;20.30;;;9.13;;
8007;SDS011;4049;49.468;11.200;2023-01-19T07:07:02;21.87;;;9.93;;
8007;SDS011;4049;49.468;11.200;2023-01-19T07:09:29;21.33;;;9.43;;
8007;SDS011;4049;49.468;11.200;2023-01-19T07:11:56;21.90;;;9.03;;
8007;SDS011;4049;49.468;11.200;2023-01-19T07:14:23;23.27;;;9.60;;
8007;SDS011;4049;49.468;11.200;2023-01-19T07:16:49;16.63;;;8.50;;
8007;SDS011;4049;49.468;11.200;2023-01-19T07:19:16;17.77;;;8.80;;
8007;SDS011;4049;49.468;11.200;2023-01-19T07:21:43;22.40;;;10.27;;
8007;SDS011;4049;49.468;11.200;2023-01-19T07:24:11;23.23;;;9.53;;
8007;SDS011;4049;49.468;11.200;2023-01-19T07:26:38;18.67;;;8.87;;
8007;SDS011;4049;49.468;11.200;2023-01-19T07:29:05;17.63;;;10.73;;
8007;SDS011;4049;49.468;11.200;2023-01-19T07:31:31;22.60;;;9.77;;
8007;SDS011;4049;49.468;11.200;2023-01-19T07:33:58;17.13;;;9.67;;
8007;SDS011;4049;49.468;11.200;2023-01-19T07:36:25;19.33;;;9.57;;
8007;SDS011;4049;49.468;11.200;2023-01-19T07:38:52;18.77;;;9.07;;
8007;SDS011;4049;49.468;11.200;2023-01-19T07:41:20;18.53;;;9.77;;
8007;SDS011;4049;49.468;11.200;2023-01-19T07:43:47;16.97;;;9.00;;
8007;SDS011;4049;49.468;11.200;2023-01-19T07:46:15;18.13;;;9.07;;
8007;SDS011;4049;49.468;11.200;2023-01-19T07:48:42;19.33;;;8.43;;
8007;SDS011;4049;49.468;11.200;2023-01-19T07:51:11;20.90;;;9.43;;
8007;SDS011;4049;49.468;11.200;2023-01-19T07:53:42;19.87;;;9.57;;
8007;SDS011;4049;49.468;11.200;2023-01-19T07:56:09;20.57;;;9.40;;
8007;SDS011;4049;49.468;11.200;2023-01-19T07:58:37;17.93;;;8.80;;
8007;SDS011;4049;49.468;11.200;2023-01-19T08:01:05;16.97;;;8.90;;
8007;SDS011;4049;49.468;11.200;2023-01-19T08:03:32;17.50;;;9.00;;
8007;SDS011;4049;49.468;11.200;2023-01-19T08:05:59;19.20;;;9.73;;
8007;SDS011;4049;49.468;11.200;2023-01-19T08:08:27;23.23;;;10.07;;
8007;SDS011;4049;49.468;11.200;2023-01-19T08:10:54;20.73;;;9.43;;
8007;SDS011;4049;49.468;11.200;2023-01-19T08:13:21;19.70;;;9.73;;
8007;SDS011;4049;49.468;11.200;2023-01-19T08:15:50;18.60;;;9.27;;
8007;SDS011;4049;49.468;11.200;2023-01-19T08:18:18;18.90;;;9.73;;
8007;SDS011;4049;49.468;11.200;2023-01-19T08:20:45;15.63;;;9.23;;
8007;SDS011;4049;49.468;11.200;2023-01-19T08:23:12;20.77;;;10.17;;
8007;SDS011;4049;49.468;11.200;2023-01-19T08:25:40;17.80;;;8.87;;
8007;SDS011;4049;49.468;11.200;2023-01-19T08:28:08;18.23;;;9.50;;
8007;SDS011;4049;49.468;11.200;2023-01-19T08:30:37;18.03;;;10.10;;
8007;SDS011;4049;49.468;11.200;2023-01-19T08:33:06;26.40;;;10.80;;
8007;SDS011;4049;49.468;11.200;2023-01-19T08:35:33;21.13;;;10.70;;
8007;SDS011;4049;49.468;11.200;2023-01-19T08:38:01;18.67;;;9.40;;
8007;SDS011;4049;49.468;11.200;2023-01-19T08:40:28;20.27;;;9.27;;
8007;SDS011;4049;49.468;11.200;2023-01-19T08:42:57;22.40;;;10.07;;
8007;SDS011;4049;49.468;11.200;2023-01-19T08:45:27;18.90;;;10.60;;
8007;SDS011;4049;49.468;11.200;2023-01-19T08:47:55;19.70;;;10.93;;
8007;SDS011;4049;49.468;11.200;2023-01-19T08:50:24;19.30;;;10.73;;
8007;SDS011;4049;49.468;11.200;2023-01-19T08:52:51;20.87;;;11.33;;
8007;SDS011;4049;49.468;11.200;2023-01-19T08:55:20;21.90;;;10.73;;
8007;SDS011;4049;49.468;11.200;2023-01-19T08:57:49;19.60;;;10.77;;
8007;SDS011;4049;49.468;11.200;2023-01-19T09:00:16;22.73;;;11.53;;
8007;SDS011;4049;49.468;11.200;2023-01-19T09:02:44;19.90;;;10.30;;
8007;SDS011;4049;49.468;11.200;2023-01-19T09:05:11;22.67;;;12.00;;
8007;SDS011;4049;49.468;11.200;2023-01-19T09:07:39;20.60;;;11.27;;
8007;SDS011;4049;49.468;11.200;2023-01-19T09:10:07;21.27;;;10.90;;
8007;SDS011;4049;49.468;11.200;2023-01-19T09:12:35;19.60;;;9.70;;
8007;SDS011;4049;49.468;11.200;2023-01-19T09:15:02;18.83;;;10.63;;
8007;SDS011;4049;49.468;11.200;2023-01-19T09:17:29;20.10;;;9.77;;
8007;SDS011;4049;49.468;11.200;2023-01-19T09:19:56;19.90;;;10.70;;
8007;SDS011;4049;49.468;11.200;2023-01-19T09:22:23;17.17;;;10.37;;
8007;SDS011;4049;49.468;11.200;2023-01-19T09:24:51;18.50;;;9.23;;
8007;SDS011;4049;49.468;11.200;2023-01-19T09:27:18;23.53;;;10.83;;
8007;SDS011;4049;49.468;11.200;2023-01-19T09:29:45;17.73;;;9.40;;
8007;SDS011;4049;49.468;11.200;2023-01-19T09:32:16;18.70;;;9.50;;
8007;SDS011;4049;49.468;11.200;2023-01-19T09:34:43;17.73;;;10.10;;
8007;SDS011;4049;49.468;11.200;2023-01-19T09:37:10;26.60;;;11.37;;
8007;SDS011;4049;49.468;11.200;2023-01-19T09:39:37;23.03;;;10.83;;
8007;SDS011;4049;49.468;11.200;2023-01-19T09:42:07;18.80;;;9.80;;
8007;SDS011;4049;49.468;11.200;2023-01-19T09:44:49;21.03;;;10.63;;
8007;SDS011;4049;49.468;11.200;2023-01-19T09:47:19;18.60;;;10.33;;
8007;SDS011;4049;49.468;11.200;2023-01-19T09:49:51;23.30;;;10.20;;
8007;SDS011;4049;49.468;11.200;2023-01-19T09:52:22;16.83;;;9.30;;
8007;SDS011;4049;49.468;11.200;2023-01-19T09:54:51;18.00;;;10.03;;
8007;SDS011;4049;49.468;11.200;2023-01-19T09:57:21;20.10;;;9.83;;
8007;SDS011;4049;49.468;11.200;2023-01-19T09:59:49;14.43;;;8.73;;
8007;SDS011;4049;49.468;11.200;2023-01-19T10:02:25;17.93;;;9.60;;
8007;SDS011;4049;49.468;11.200;2023-01-19T10:04:58;21.90;;;11.20;;
8007;SDS011;4049;49.468;11.200;2023-01-19T10:07:31;21.47;;;9.13;;
8007;SDS011;4049;49.468;11.200;2023-01-19T10:10:11;17.80;;;9.83;;
8007;SDS011;4049;49.468;11.200;2023-01-19T10:12:51;17.43;;;8.97;;
8007;SDS011;4049;49.468;11.200;2023-01-19T10:15:28;16.40;;;8.57;;
8007;SDS011;4049;49.468;11.200;2023-01-19T10:18:09;14.50;;;8.23;;
8007;SDS011;4049;49.468;11.200;2023-01-19T10:20:39;14.03;;;7.70;;
8007;SDS011;4049;49.468;11.200;2023-01-19T10:26:00;16.30;;;8.77;;
8007;SDS011;4049;49.468;11.200;2023-01-19T10:28:34;16.10;;;9.00;;
8007;SDS011;4049;49.468;11.200;2023-01-19T10:31:02;16.93;;;9.13;;
8007;SDS011;4049;49.468;11.200;2023-01-19T10:33:31;23.43;;;13.50;;
8007;SDS011;4049;49.468;11.200;2023-01-19T10:35:58;15.50;;;8.80;;
8007;SDS011;4049;49.468;11.200;2023-01-19T10:38:29;17.87;;;7.97;;
8007;SDS011;4049;49.468;11.200;2023-01-19T10:40:59;13.97;;;7.53;;
8007;SDS011;4049;49.468;11.200;2023-01-19T10:43:41;12.33;;;7.17;;
8007;SDS011;4049;49.468;11.200;2023-01-19T10:46:19;17.70;;;7.27;;
8007;SDS011;4049;49.468;11.200;2023-01-19T10:48:48;10.17;;;6.27;;
8007;SDS011;4049;49.468;11.200;2023-01-19T10:51:16;9.20;;;5.80;;
8007;SDS011;4049;49.468;11.200;2023-01-19T10:53:51;9.73;;;6.07;;
8007;SDS011;4049;49.468;11.200;2023-01-19T10:56:21;11.27;;;6.20;;
8007;SDS011;4049;49.468;11.200;2023-01-19T10:58:51;13.70;;;5.93;;
8007;SDS011;4049;49.468;11.200;2023-01-19T11:01:18;9.50;;;5.47;;
8007;SDS011;4049;49.468;11.200;2023-01-19T11:03:49;9.53;;;5.53;;
8007;SDS011;4049;49.468;11.200;2023-01-19T11:06:19;8.13;;;5.60;;
8007;SDS011;4049;49.468;11.200;2023-01-19T11:08:48;9.27;;;5.03;;
8007;SDS011;4049;49.468;11.200;2023-01-19T11:11:16;10.50;;;5.57;;
8007;SDS011;4049;49.468;11.200;2023-01-19T11:13:44;7.87;;;5.53;;
8007;SDS011;4049;49.468;11.200;2023-01-19T11:16:28;9.70;;;5.67;;
8007;SDS011;4049;49.468;11.200;2023-01-19T11:18:58;8.03;;;5.33;;
8007;SDS011;4049;49.468;11.200;2023-01-19T11:21:28;12.40;;;6.27;;
8007;SDS011;4049;49.468;11.200;2023-01-19T11:23:58;8.03;;;5.50;;
8007;SDS011;4049;49.468;11.200;2023-01-19T11:26:29;8.07;;;5.93;;
8007;SDS011;4049;49.468;11.200;2023-01-19T11:29:01;9.37;;;6.10;;
8007;SDS011;4049;49.468;11.200;2023-01-19T11:31:31;12.20;;;6.07;;
8007;SDS011;4049;49.468;11.200;2023-01-19T11:33:59;13.43;;;5.53;;
8007;SDS011;4049;49.468;11.200;2023-01-19T11:36:28;9.07;;;4.83;;
8007;SDS011;4049;49.468;11.200;2023-01-19T11:38:57;9.53;;;5.73;;
8007;SDS011;4049;49.468;11.200;2023-01-19T11:41:25;8.63;;;5.17;;
8007;SDS011;4049;49.468;11.200;2023-01-19T11:43:54;10.13;;;5.37;;
8007;SDS011;4049;49.468;11.200;2023-01-19T11:46:23;11.83;;;5.83;;
8007;SDS011;4049;49.468;11.200;2023-01-19T11:48:55;11.20;;;5.40;;
8007;SDS011;4049;49.468;11.200;2023-01-19T11:51:27;10.47;;;5.30;;
8007;SDS011;4049;49.468;11.200;2023-01-19T11:53:59;10.93;;;4.93;;
8007;SDS011;4049;49.468;11.200;2023-01-19T11:56:33;12.13;;;4.67;;
8007;SDS011;4049;49.468;11.200;2023-01-19T11:59:01;8.47;;;5.03;;
8007;SDS011;4049;49.468;11.200;2023-01-19T12:01:29;11.83;;;5.10;;
8007;SDS011;4049;49.468;11.200;2023-01-19T12:04:00;7.10;;;4.80;;
8007;SDS011;4049;49.468;11.200;2023-01-19T12:06:29;9.23;;;5.37;;
8007;SDS011;4049;49.468;11.200;2023-01-19T12:08:59;7.80;;;4.67;;
8007;SDS011;4049;49.468;11.200;2023-01-19T12:11:31;6.77;;;4.60;;
8007;SDS011;4049;49.468;11.200;2023-01-19T12:14:00;7.07;;;4.10;;
8007;SDS011;4049;49.468;11.200;2023-01-19T12:16:28;9.00;;;5.67;;
8007;SDS011;4049;49.468;11.200;2023-01-19T12:18:58;7.33;;;4.30;;
8007;SDS011;4049;49.468;11.200;2023-01-19T12:21:28;6.53;;;4.30;;
8007;SDS011;4049;49.468;11.200;2023-01-19T12:23:58;6.13;;;3.90;;
8007;SDS011;4049;49.468;11.200;2023-01-19T12:26:35;8.50;;;4.23;;
8007;SDS011;4049;49.468;11.200;2023-01-19T12:29:04;5.47;;;4.07;;
8007;SDS011;4049;49.468;11.200;2023-01-19T12:31:36;9.73;;;3.93;;
8007;SDS011;4049;49.468;11.200;2023-01-19T12:37:06;7.17;;;3.43;;
8007;SDS011;4049;49.468;11.200;2023-01-19T12:40:17;10.10;;;4.23;;
8007;SDS011;4049;49.468;11.200;2023-01-19T12:42:50;11.37;;;4.43;;
8007;SDS011;4049;49.468;11.200;2023-01-19T12:45:24;9.07;;;3.73;;
8007;SDS011;4049;49.468;11.200;2023-01-19T12:47:56;9.70;;;3.90;;
8007;SDS011;4049;49.468;11.200;2023-01-19T12:50:24;7.23;;;3.90;;
8007;SDS011;4049;49.468;11.200;2023-01-19T12:52:54;6.27;;;4.90;;
8007;SDS011;4049;49.468;11.200;2023-01-19T12:55:24;7.33;;;4.40;;
8007;SDS011;4049;49.468;11.200;2023-01-19T12:57:59;7.03;;;4.43;;
8007;SDS011;4049;49.468;11.200;2023-01-19T13:00:30;10.20;;;4.83;;
8007;SDS011;4049;49.468;11.200;2023-01-19T13:03:02;4.97;;;3.47;;
8007;SDS011;4049;49.468;11.200;2023-01-19T13:08:26;7.57;;;4.83;;
8007;SDS011;4049;49.468;11.200;2023-01-19T13:13:42;5.93;;;3.90;;
8007;SDS011;4049;49.468;11.200;2023-01-19T13:19:21;7.20;;;4.40;;
8007;SDS011;4049;49.468;11.200;2023-01-19T13:21:58;7.30;;;4.33;;
8007;SDS011;4049;49.468;11.200;2023-01-19T13:25:05;5.37;;;3.70;;
8007;SDS011;4049;49.468;11.200;2023-01-19T13:27:34;6.47;;;3.60;;
8007;SDS011;4049;49.468;11.200;2023-01-19T13:30:08;6.33;;;3.77;;
8007;SDS011;4049;49.468;11.200;2023-01-19T13:32:39;5.20;;;3.53;;
8007;SDS011;4049;49.468;11.200;2023-01-19T13:35:11;7.07;;;3.73;;
8007;SDS011;4049;49.468;11.200;2023-01-19T13:37:41;6.10;;;4.13;;
8007;SDS011;4049;49.468;11.200;2023-01-19T13:40:16;5.50;;;3.77;;
8007;SDS011;4049;49.468;11.200;2023-01-19T13:42:46;9.80;;;5.60;;
8007;SDS011;4049;49.468;11.200;2023-01-19T13:45:20;6.87;;;3.60;;
8007;SDS011;4049;49.468;11.200;2023-01-19T13:47:53;6.37;;;4.23;;
8007;SDS011;4049;49.468;11.200;2023-01-19T13:50:25;7.13;;;3.63;;
8007;SDS011;4049;49.468;11.200;2023-01-19T13:52:53;10.47;;;5.73;;
8007;SDS011;4049;49.468;11.200;2023-01-19T13:55:24;38.73;;;14.57;;
8007;SDS011;4049;49.468;11.200;2023-01-19T13:57:52;20.83;;;8.60;;
8007;SDS011;4049;49.468;11.200;2023-01-19T14:00:20;21.30;;;9.20;;
8007;SDS011;4049;49.468;11.200;2023-01-19T14:02:53;7.90;;;4.43;;
8007;SDS011;4049;49.468;11.200;2023-01-19T14:05:25;7.90;;;4.63;;
8007;SDS011;4049;49.468;11.200;2023-01-19T14:08:00;8.10;;;5.27;;
8007;SDS011;4049;49.468;11.200;2023-01-19T14:10:30;28.17;;;11.67;;
8007;SDS011;4049;49.468;11.200;2023-01-19T14:12:58;21.07;;;8.20;;
8007;SDS011;4049;49.468;11.200;2023-01-19T14:15:26;22.90;;;8.83;;
8007;SDS011;4049;49.468;11.200;2023-01-19T14:18:09;16.73;;;7.37;;
8007;SDS011;4049;49.468;11.200;2023-01-19T14:20:50;6.87;;;3.90;;
8007;SDS011;4049;49.468;11.200;2023-01-19T14:23:40;9.50;;;5.10;;
8007;SDS011;4049;49.468;11.200;2023-01-19T14:32:04;6.83;;;4.53;;
8007;SDS011;4049;49.468;11.200;2023-01-19T14:34:37;6.30;;;4.47;;
8007;SDS011;4049;49.468;11.200;2023-01-19T14:37:12;7.80;;;4.03;;
8007;SDS011;4049;49.468;11.200;2023-01-19T14:39:45;6.70;;;4.30;;
8007;SDS011;4049;49.468;11.200;2023-01-19T14:42:16;6.90;;;4.20;;
8007;SDS011;4049;49.468;11.200;2023-01-19T14:44:49;8.30;;;4.73;;
8007;SDS011;4049;49.468;11.200;2023-01-19T14:47:24;8.97;;;4.40;;
8007;SDS011;4049;49.468;11.200;2023-01-19T14:49:54;7.23;;;4.23;;
8007;SDS011;4049;49.468;11.200;2023-01-19T14:52:24;9.97;;;4.60;;
8007;SDS011;4049;49.468;11.200;2023-01-19T14:54:53;6.30;;;4.10;;
8007;SDS011;4049;49.468;11.200;2023-01-19T14:57:23;6.23;;;4.30;;
8007;SDS011;4049;49.468;11.200;2023-01-19T14:59:50;5.73;;;4.37;;
8007;SDS011;4049;49.468;11.200;2023-01-19T15:02:17;6.70;;;4.00;;
8007;SDS011;4049;49.468;11.200;2023-01-19T15:04:47;7.90;;;4.07;;
8007;SDS011;4049;49.468;11.200;2023-01-19T15:07:18;7.97;;;4.43;;
8007;SDS011;4049;49.468;11.200;2023-01-19T15:09:45;7.60;;;4.23;;
8007;SDS011;4049;49.468;11.200;2023-01-19T15:12:12;6.27;;;3.93;;
8007;SDS011;4049;49.468;11.200;2023-01-19T15:14:42;6.97;;;4.33;;
8007;SDS011;4049;49.468;11.200;2023-01-19T15:17:13;6.13;;;4.47;;
8007;SDS011;4049;49.468;11.200;2023-01-19T15:19:49;8.87;;;4.70;;
8007;SDS011;4049;49.468;11.200;2023-01-19T15:22:16;8.70;;;4.27;;
8007;SDS011;4049;49.468;11.200;2023-01-19T15:24:43;6.90;;;4.40;;
8007;SDS011;4049;49.468;11.200;2023-01-19T15:27:10;8.73;;;4.27;;
8007;SDS011;4049;49.468;11.200;2023-01-19T15:29:37;7.13;;;4.50;;